Time;durP1;ratioP1;P1;durP2;ratioP2;P2;SDS_P1;SDS_P2;PMS_P1;PMS_P2;Temp;Humidity;BMP_temperature;BMP_pressure;BME280_temperature;BME280_humidity;BME280_pressure;Samples;Min_cycle;Max_cycle;Signal;HPM_P1;HPM_P2
2021/10/05 00:00:14;;;;;;;18.30;16.40;;;;;;;16.01;88.62;96148.09;4975891;28;20445;-54
2021/10/05 00:02:39;;;;;;;19.10;15.80;;;;;;;16.05;88.38;96148.38;4975430;28;20178;-58
2021/10/05 00:05:06;;;;;;;18.93;15.57;;;;;;;15.99;88.61;96149.41;4975560;28;20221;-59
2021/10/05 00:07:32;;;;;;;17.87;15.70;;;;;;;16.00;88.82;96149.16;4975609;28;20185;-54
2021/10/05 00:09:57;;;;;;;17.93;16.03;;;;;;;15.96;88.54;96139.34;4975763;28;20413;-54
2021/10/05 00:12:23;;;;;;;17.90;16.10;;;;;;;15.94;88.97;96136.94;4975595;28;20198;-55
2021/10/05 00:14:50;;;;;;;18.50;16.60;;;;;;;15.95;89.02;96135.91;4974922;28;20204;-55
2021/10/05 00:17:19;;;;;;;17.00;14.57;;;;;;;15.96;89.22;96131.41;4975269;28;20170;-54
2021/10/05 00:19:45;;;;;;;18.33;16.37;;;;;;;16.01;88.91;96131.41;4975603;28;20750;-54
2021/10/05 00:22:11;;;;;;;18.93;15.30;;;;;;;15.98;88.92;96123.97;4975289;28;20413;-58
2021/10/05 00:24:36;;;;;;;18.57;16.00;;;;;;;16.03;88.89;96130.06;4974966;28;20406;-55
2021/10/05 00:27:02;;;;;;;17.80;15.63;;;;;;;16.07;88.65;96120.50;4975462;28;20313;-58
2021/10/05 00:29:27;;;;;;;18.90;16.00;;;;;;;16.12;88.38;96117.88;4975305;28;20640;-55
2021/10/05 00:31:53;;;;;;;18.10;15.47;;;;;;;16.03;88.60;96102.78;4975096;28;20542;-54
2021/10/05 00:34:18;;;;;;;17.63;15.73;;;;;;;15.97;89.00;96093.22;4975026;28;20182;-55
2021/10/05 00:36:43;;;;;;;18.37;14.70;;;;;;;15.95;89.28;96090.84;4975044;28;20190;-58
2021/10/05 00:39:09;;;;;;;18.10;16.20;;;;;;;15.99;89.27;96093.75;4975043;28;20185;-58
2021/10/05 00:41:34;;;;;;;18.00;16.10;;;;;;;16.05;88.87;96090.81;4975338;28;20180;-54
2021/10/05 00:44:00;;;;;;;16.83;14.90;;;;;;;16.01;89.00;96089.78;4974685;28;20185;-54
2021/10/05 00:46:27;;;;;;;19.00;14.60;;;;;;;16.07;88.99;96079.97;4974865;28;20213;-58
2021/10/05 00:48:54;;;;;;;17.87;15.63;;;;;;;16.09;88.67;96081.28;4975121;28;20174;-59
2021/10/05 00:51:21;;;;;;;16.87;14.77;;;;;;;16.10;88.49;96080.25;4974876;28;20604;-58
2021/10/05 00:53:46;;;;;;;17.67;13.73;;;;;;;16.06;88.87;96071.22;4974505;28;20421;-58
2021/10/05 00:56:12;;;;;;;17.37;15.40;;;;;;;16.05;89.35;96066.97;4974803;28;20805;-59
2021/10/05 00:58:38;;;;;;;16.70;14.10;;;;;;;16.07;89.16;96061.44;4974890;28;20182;-58
2021/10/05 01:01:03;;;;;;;17.63;15.83;;;;;;;16.13;88.89;96052.38;4974881;28;20659;-59
2021/10/05 01:03:29;;;;;;;18.73;16.43;;;;;;;16.15;88.52;96044.97;4974365;28;20444;-54
2021/10/05 01:05:54;;;;;;;19.07;16.27;;;;;;;16.18;88.48;96045.22;4974771;28;20210;-58
2021/10/05 01:08:20;;;;;;;20.60;15.93;;;;;;;16.20;88.71;96024.53;4974868;28;20174;-58
2021/10/05 01:10:46;;;;;;;21.13;17.47;;;;;;;16.12;89.04;96013.69;4974560;28;20182;-54
2021/10/05 01:13:11;;;;;;;20.07;16.77;;;;;;;16.08;89.22;96016.09;4974284;28;20201;-58
2021/10/05 01:15:36;;;;;;;19.57;17.47;;;;;;;16.11;88.95;96004.94;4974602;28;20280;-55
2021/10/05 01:18:02;;;;;;;20.33;17.57;;;;;;;16.11;89.03;96004.13;4974505;28;20264;-55
2021/10/05 01:20:27;;;;;;;20.07;17.27;;;;;;;16.13;88.70;96008.13;4974542;28;20189;-58
2021/10/05 01:22:53;;;;;;;20.23;16.90;;;;;;;16.05;89.46;96010.53;4974296;28;20174;-58
2021/10/05 01:25:19;;;;;;;20.17;16.80;;;;;;;16.05;89.18;96011.31;4974575;28;20236;-58
2021/10/05 01:27:48;;;;;;;19.33;16.13;;;;;;;15.93;89.82;96010.81;4975539;28;20208;-58
2021/10/05 01:30:15;;;;;;;17.27;15.47;;;;;;;15.98;89.78;96015.31;4978627;28;20407;-55
2021/10/05 01:32:42;;;;;;;19.43;16.63;;;;;;;16.04;89.58;96011.59;4978005;28;20449;-55
2021/10/05 01:35:08;;;;;;;17.13;15.33;;;;;;;16.01;89.56;95999.69;4978465;28;20433;-54
2021/10/05 01:37:34;;;;;;;17.87;15.47;;;;;;;16.04;89.47;95995.69;4978229;28;20460;-58
2021/10/05 01:40:00;;;;;;;18.10;16.20;;;;;;;16.00;89.22;95995.41;4978497;28;20417;-54
2021/10/05 01:42:25;;;;;;;22.13;17.33;;;;;;;15.95;89.80;95994.63;4978429;28;20945;-58
2021/10/05 01:44:51;;;;;;;17.10;15.30;;;;;;;16.03;89.19;95989.56;4977824;28;20681;-58
2021/10/05 01:47:17;;;;;;;18.20;16.30;;;;;;;15.99;89.88;95988.53;4976933;28;20641;-54
2021/10/05 01:49:43;;;;;;;18.67;16.77;;;;;;;16.07;89.34;95987.22;4978336;28;20441;-58
2021/10/05 01:52:08;;;;;;;21.53;15.73;;;;;;;16.06;89.29;95996.22;4978118;28;20224;-54
2021/10/05 01:54:34;;;;;;;18.93;16.27;;;;;;;16.09;89.12;96004.41;4977684;28;20634;-55
2021/10/05 01:57:00;;;;;;;20.10;17.03;;;;;;;16.08;88.69;96018.75;4978186;28;20193;-55
2021/10/05 01:59:25;;;;;;;19.87;16.20;;;;;;;16.08;88.83;96016.09;4978418;28;20959;-54
2021/10/05 02:01:51;;;;;;;21.90;16.80;;;;;;;16.09;88.69;96017.66;4978087;28;20175;-58
2021/10/05 02:04:16;;;;;;;16.97;15.17;;;;;;;16.06;88.82;96012.91;4977560;28;20181;-58
2021/10/05 02:06:42;;;;;;;18.27;15.87;;;;;;;16.01;89.06;95999.69;4978022;28;20202;-58
2021/10/05 02:09:09;;;;;;;19.00;15.60;;;;;;;16.04;89.14;96003.63;4977783;28;20182;-59
2021/10/05 02:11:35;;;;;;;19.03;15.63;;;;;;;16.06;88.92;95997.00;4977715;28;20201;-55
2021/10/05 02:14:02;;;;;;;17.97;14.93;;;;;;;16.06;88.91;95988.25;4977328;28;20441;-59
2021/10/05 02:16:28;;;;;;;18.07;16.10;;;;;;;16.01;88.86;95975.81;4977580;28;20198;-54
2021/10/05 02:18:53;;;;;;;17.63;15.20;;;;;;;15.96;89.12;95978.47;4977809;28;20421;-55
2021/10/05 02:21:19;;;;;;;15.93;14.20;;;;;;;16.03;88.95;95973.66;4977652;28;20523;-59
2021/10/05 02:26:31;;;;;;;19.67;15.87;;;;;;;15.97;89.68;95972.13;4977769;28;20203;-58
2021/10/05 02:28:56;;;;;;;15.47;13.80;;;;;;;16.03;89.24;95968.38;4977420;28;20492;-58
2021/10/05 02:31:22;;;;;;;17.40;15.60;;;;;;;16.01;89.16;95967.06;4977418;28;20501;-55
2021/10/05 02:33:47;;;;;;;17.10;14.53;;;;;;;16.06;89.18;95965.19;4977132;28;20202;-58
2021/10/05 02:36:12;;;;;;;18.27;15.47;;;;;;;16.07;89.43;95960.69;4977393;28;20703;-58
2021/10/05 02:38:38;;;;;;;18.33;15.47;;;;;;;16.04;89.17;95959.38;4976581;28;20209;-56
2021/10/05 02:41:04;;;;;;;15.20;13.23;;;;;;;16.01;89.28;95959.13;4977406;28;20265;-56
2021/10/05 02:43:29;;;;;;;17.63;14.47;;;;;;;16.02;89.11;95958.03;4976822;28;20201;-55
2021/10/05 02:45:55;;;;;;;15.70;14.00;;;;;;;16.08;89.09;95957.78;4977161;28;20468;-58
2021/10/05 02:48:20;;;;;;;16.20;13.67;;;;;;;16.07;88.58;95953.53;4977409;28;20248;-59
2021/10/05 02:50:45;;;;;;;15.03;12.90;;;;;;;15.98;88.94;95952.50;4977171;28;20202;-58
2021/10/05 02:53:11;;;;;;;14.00;12.50;;;;;;;16.01;88.60;95951.16;4976752;28;20222;-55
2021/10/05 02:55:36;;;;;;;14.33;12.80;;;;;;;15.96;88.71;95948.53;4977126;28;20700;-55
2021/10/05 02:58:02;;;;;;;16.20;12.70;;;;;;;15.87;88.30;95950.16;4976916;28;20178;-58
2021/10/05 03:00:27;;;;;;;15.67;13.00;;;;;;;15.79;88.67;95948.84;4977074;28;20181;-58
2021/10/05 03:02:53;;;;;;;16.47;14.17;;;;;;;15.74;89.30;95942.75;4976496;28;20236;-54
2021/10/05 03:05:18;;;;;;;16.60;13.37;;;;;;;15.67;89.58;95943.00;4976837;28;20279;-54
2021/10/05 03:07:43;;;;;;;16.73;13.80;;;;;;;15.73;89.26;95944.59;4976728;28;20544;-58
2021/10/05 03:10:09;;;;;;;14.50;12.10;;;;;;;15.68;89.41;95947.25;4976826;28;20196;-55
2021/10/05 03:12:35;;;;;;;15.87;13.40;;;;;;;15.65;89.67;95945.16;4976365;28;20564;-57
2021/10/05 03:15:00;;;;;;;16.63;13.37;;;;;;;15.58;89.82;95955.22;4976670;28;20193;-56
2021/10/05 03:17:26;;;;;;;15.97;12.93;;;;;;;15.47;90.32;95950.19;4976662;28;20178;-54
2021/10/05 03:19:51;;;;;;;16.70;13.43;;;;;;;15.54;89.80;95938.28;4976816;28;20179;-58
2021/10/05 03:22:16;;;;;;;15.50;12.43;;;;;;;15.55;90.32;95926.63;4976590;28;20525;-59
2021/10/05 03:24:42;;;;;;;15.50;12.77;;;;;;;15.59;90.31;95925.03;4975919;28;20184;-55
2021/10/05 03:27:10;;;;;;;13.57;11.87;;;;;;;15.61;90.21;95914.16;4976530;28;20174;-54
2021/10/05 03:29:36;;;;;;;14.27;12.77;;;;;;;15.61;90.78;95907.03;4976480;28;20178;-59
2021/10/05 03:32:01;;;;;;;14.00;11.67;;;;;;;15.62;90.60;95903.28;4976564;28;20780;-55
2021/10/05 03:34:27;;;;;;;16.60;12.53;;;;;;;15.64;90.59;95906.47;4976097;28;20246;-58
2021/10/05 03:36:52;;;;;;;14.80;12.00;;;;;;;15.68;90.70;95912.81;4976320;28;20202;-55
2021/10/05 03:39:17;;;;;;;16.87;11.80;;;;;;;15.72;90.20;95921.84;4976267;28;20184;-57
2021/10/05 03:41:43;;;;;;;12.73;10.27;;;;;;;15.72;90.34;95921.84;4976096;28;20177;-55
2021/10/05 03:44:08;;;;;;;12.47;9.97;;;;;;;15.74;90.14;95921.56;4975760;28;20621;-58
2021/10/05 03:46:33;;;;;;;13.93;10.67;;;;;;;15.82;89.03;95928.94;4976283;28;20193;-58
2021/10/05 03:48:59;;;;;;;11.53;9.90;;;;;;;15.82;88.79;95926.28;4976015;28;20700;-58
2021/10/05 03:51:24;;;;;;;10.30;8.23;;;;;;;15.67;89.59;95924.47;4975136;28;20178;-57
2021/10/05 03:53:50;;;;;;;10.20;9.10;;;;;;;15.64;90.44;95916.25;4975420;28;20182;-54
2021/10/05 03:56:15;;;;;;;11.80;9.20;;;;;;;15.64;90.46;95924.22;4975973;28;20543;-55
2021/10/05 03:58:41;;;;;;;11.07;9.70;;;;;;;15.68;90.31;95919.97;4975862;28;20535;-58
2021/10/05 04:01:06;;;;;;;11.77;10.00;;;;;;;15.72;90.07;95916.53;4975960;28;20182;-55
2021/10/05 04:03:32;;;;;;;10.47;8.97;;;;;;;15.70;90.16;95923.94;4975403;28;20261;-55
2021/10/05 04:05:58;;;;;;;13.50;10.67;;;;;;;15.77;89.64;95926.31;4975721;28;20248;-55
2021/10/05 04:08:24;;;;;;;11.50;9.83;;;;;;;15.76;88.92;95936.09;4975460;28;20193;-55
2021/10/05 04:10:50;;;;;;;12.30;8.90;;;;;;;15.64;89.88;95943.56;4975770;28;20201;-55
2021/10/05 04:13:16;;;;;;;12.87;10.07;;;;;;;15.54;89.90;95951.53;4975228;28;20956;-54
2021/10/05 04:15:42;;;;;;;13.90;10.20;;;;;;;15.63;89.42;95941.19;4975390;28;20208;-58
2021/10/05 04:18:08;;;;;;;11.50;8.87;;;;;;;15.58;89.81;95952.56;4975646;28;20823;-59
2021/10/05 04:20:34;;;;;;;12.07;9.40;;;;;;;15.50;90.33;95939.88;4975510;28;20988;-58
2021/10/05 04:22:59;;;;;;;12.70;9.93;;;;;;;15.51;90.72;95948.63;4975046;28;20712;-55
2021/10/05 04:25:24;;;;;;;12.47;10.00;;;;;;;15.56;90.76;95935.38;4975257;28;20198;-55
2021/10/05 04:27:50;;;;;;;11.80;9.47;;;;;;;15.59;90.56;95932.16;4975384;28;20653;-55
2021/10/05 04:30:16;;;;;;;12.07;9.57;;;;;;;15.62;90.41;95923.72;4975299;28;20585;-54
2021/10/05 04:32:41;;;;;;;12.40;9.30;;;;;;;15.66;90.27;95912.31;4974844;28;20554;-55
2021/10/05 04:35:09;;;;;;;13.03;9.70;;;;;;;15.77;89.98;95903.28;4975152;28;20436;-59
2021/10/05 04:37:34;;;;;;;13.20;10.30;;;;;;;15.77;89.83;95889.22;4975527;28;20194;-57
2021/10/05 04:40:00;;;;;;;12.93;9.80;;;;;;;15.80;89.79;95900.06;4975239;28;20472;-58
2021/10/05 04:42:25;;;;;;;13.30;8.83;;;;;;;15.79;90.02;95898.50;4975243;28;20194;-55
2021/10/05 04:44:51;;;;;;;13.50;10.20;;;;;;;15.82;90.02;95911.19;4974660;28;20208;-55
2021/10/05 04:47:17;;;;;;;12.90;9.43;;;;;;;15.84;89.00;95902.97;4975150;28;20185;-55
2021/10/05 04:49:42;;;;;;;12.80;9.77;;;;;;;15.78;89.34;95907.50;4975083;28;20401;-58
2021/10/05 04:52:08;;;;;;;12.03;9.73;;;;;;;15.70;89.43;95901.97;4974771;28;20285;-55
2021/10/05 04:54:33;;;;;;;13.33;9.63;;;;;;;15.65;89.91;95900.13;4974504;28;20174;-55
2021/10/05 04:56:59;;;;;;;11.80;8.70;;;;;;;15.76;88.78;95890.28;4975065;28;20629;-58
2021/10/05 04:59:25;;;;;;;13.20;10.30;;;;;;;15.66;89.52;95890.31;4974996;28;20593;-54
2021/10/05 05:01:50;;;;;;;13.03;10.07;;;;;;;15.60;90.02;95886.88;4974655;28;20451;-54
2021/10/05 05:04:18;;;;;;;10.90;8.33;;;;;;;15.53;90.54;95875.00;4973092;28;20334;-54
2021/10/05 05:06:44;;;;;;;12.27;9.37;;;;;;;15.55;90.60;95878.94;4974538;28;20194;-58
2021/10/05 05:09:10;;;;;;;12.27;9.50;;;;;;;15.66;89.97;95875.22;4974660;28;20448;-54
2021/10/05 05:11:36;;;;;;;11.67;8.30;;;;;;;15.65;90.10;95864.91;4974752;28;20257;-54
2021/10/05 05:14:07;;;;;;;12.50;9.20;;;;;;;15.70;89.55;95865.69;4974288;28;20209;-58
2021/10/05 05:16:33;;;;;;;11.10;9.80;;;;;;;15.69;89.60;95863.31;4974706;28;20209;-58
2021/10/05 05:18:58;;;;;;;13.30;10.47;;;;;;;15.60;90.07;95865.69;4974698;28;20425;-54
2021/10/05 05:21:24;;;;;;;12.53;9.17;;;;;;;15.58;90.24;95861.75;4974810;28;20823;-54
2021/10/05 05:23:50;;;;;;;12.57;8.73;;;;;;;15.64;90.33;95855.34;4974230;28;20178;-54
2021/10/05 05:26:15;;;;;;;12.37;9.30;;;;;;;15.69;89.94;95872.03;4974664;28;20222;-58
2021/10/05 05:28:41;;;;;;;12.47;9.27;;;;;;;15.65;88.89;95872.84;4974657;28;20205;-54
2021/10/05 05:31:06;;;;;;;11.27;8.30;;;;;;;15.58;89.27;95870.47;4974661;28;20260;-58
2021/10/05 05:33:32;;;;;;;12.93;10.20;;;;;;;15.49;89.89;95864.13;4974132;28;20217;-54
2021/10/05 05:35:57;;;;;;;13.37;9.07;;;;;;;15.46;89.99;95867.31;4974409;28;20194;-55
2021/10/05 05:38:23;;;;;;;12.73;9.87;;;;;;;15.51;89.71;95866.53;4974550;28;20186;-54
2021/10/05 05:40:49;;;;;;;11.83;9.03;;;;;;;15.53;89.89;95867.81;4974519;28;20229;-55
2021/10/05 05:43:15;;;;;;;10.83;9.13;;;;;;;15.50;90.03;95868.38;4974181;28;20460;-56
2021/10/05 05:45:41;;;;;;;11.70;9.20;;;;;;;15.52;89.89;95876.03;4974498;28;20512;-54
2021/10/05 05:48:06;;;;;;;10.87;8.10;;;;;;;15.47;89.72;95878.72;4974587;28;20723;-58
2021/10/05 05:50:32;;;;;;;12.10;8.83;;;;;;;15.41;89.42;95862.84;4974255;28;20741;-58
2021/10/05 05:52:57;;;;;;;11.77;9.27;;;;;;;15.30;90.63;95863.88;4974161;28;20209;-55
2021/10/05 05:55:23;;;;;;;11.27;9.40;;;;;;;15.28;90.81;95865.19;4974204;28;20209;-58
2021/10/05 05:57:50;;;;;;;12.90;9.03;;;;;;;15.18;91.46;95863.34;4974381;28;20166;-58
2021/10/05 06:00:17;;;;;;;10.90;8.17;;;;;;;15.33;90.46;95867.84;4974341;28;20460;-54
2021/10/05 06:02:42;;;;;;;11.77;8.50;;;;;;;15.27;91.25;95867.03;4973936;28;20429;-55
2021/10/05 06:05:08;;;;;;;11.70;8.27;;;;;;;15.18;91.93;95857.28;4974222;28;20433;-55
2021/10/05 06:07:33;;;;;;;10.00;7.73;;;;;;;15.21;91.74;95857.53;4974014;28;20178;-54
2021/10/05 06:09:59;;;;;;;10.93;8.60;;;;;;;15.23;91.88;95852.78;4974129;28;20178;-58
2021/10/05 06:12:29;;;;;;;11.20;8.97;;;;;;;15.27;92.14;95853.81;4974438;28;20194;-54
2021/10/05 06:14:55;;;;;;;9.57;8.03;;;;;;;15.31;92.11;95848.78;4975163;28;20205;-58
2021/10/05 06:17:20;;;;;;;12.70;8.90;;;;;;;15.37;91.99;95845.88;4976613;28;20520;-58
2021/10/05 06:19:45;;;;;;;11.07;8.40;;;;;;;15.47;91.80;95850.38;4977785;28;20233;-58
2021/10/05 06:22:11;;;;;;;12.77;8.97;;;;;;;15.49;91.40;95842.94;4978416;28;20217;-55
2021/10/05 06:24:36;;;;;;;10.80;8.70;;;;;;;15.56;91.10;95845.31;4977386;28;20174;-55
2021/10/05 06:27:02;;;;;;;10.70;8.40;;;;;;;15.56;90.92;95842.69;4977883;28;20189;-54
2021/10/05 06:29:27;;;;;;;9.77;8.03;;;;;;;15.63;90.79;95843.19;4976565;28;20233;-58
2021/10/05 06:31:53;;;;;;;9.53;7.70;;;;;;;15.71;89.93;95851.34;4977599;28;20260;-58
2021/10/05 06:34:18;;;;;;;8.33;6.70;;;;;;;15.73;89.53;95849.22;4977091;28;20174;-55
2021/10/05 06:36:44;;;;;;;9.33;7.17;;;;;;;15.71;89.33;95846.06;4977276;28;20194;-57
2021/10/05 06:39:09;;;;;;;7.47;6.50;;;;;;;15.73;89.19;95843.94;4977281;28;20213;-54
2021/10/05 06:41:35;;;;;;;7.00;5.67;;;;;;;15.67;89.24;95839.72;4977595;28;20166;-54
2021/10/05 06:44:00;;;;;;;7.17;6.47;;;;;;;15.75;88.35;95830.41;4976875;28;20257;-58
2021/10/05 06:46:25;;;;;;;7.67;6.50;;;;;;;15.69;88.66;95824.34;4977086;28;20201;-54
2021/10/05 06:48:51;;;;;;;8.20;7.00;;;;;;;15.71;88.70;95830.16;4977216;28;20652;-54
2021/10/05 06:51:16;;;;;;;9.87;8.20;;;;;;;15.71;88.59;95835.47;4977722;28;20209;-58
2021/10/05 06:53:42;;;;;;;11.77;8.30;;;;;;;15.67;88.86;95842.34;4976838;28;20202;-58
2021/10/05 06:56:07;;;;;;;9.13;7.53;;;;;;;15.71;88.79;95832.03;4977068;28;20182;-58
2021/10/05 06:58:33;;;;;;;10.53;7.20;;;;;;;15.64;89.21;95827.00;4977168;28;20617;-59
2021/10/05 07:00:58;;;;;;;11.40;6.90;;;;;;;15.68;89.19;95829.91;4977045;28;20174;-54
2021/10/05 07:03:24;;;;;;;10.00;7.53;;;;;;;15.69;88.68;95832.28;4976627;28;20482;-55
2021/10/05 07:05:50;;;;;;;11.83;7.40;;;;;;;15.56;88.92;95829.44;4976978;28;20204;-58
2021/10/05 07:08:16;;;;;;;7.77;6.40;;;;;;;15.56;89.13;95830.22;4975862;28;20588;-58
2021/10/05 07:10:41;;;;;;;7.80;6.20;;;;;;;15.51;88.97;95829.44;4976839;28;20744;-58
2021/10/05 07:13:07;;;;;;;8.70;6.27;;;;;;;15.51;88.68;95830.22;4976400;28;20252;-58
2021/10/05 07:15:33;;;;;;;7.63;5.80;;;;;;;15.37;89.33;95826.53;4976754;28;20190;-54
2021/10/05 07:17:59;;;;;;;8.70;7.03;;;;;;;15.35;89.64;95828.66;4976766;28;20717;-58
2021/10/05 07:20:26;;;;;;;6.83;5.50;;;;;;;15.42;89.41;95826.53;4976848;28;20540;-54
2021/10/05 07:22:51;;;;;;;9.70;7.00;;;;;;;15.29;90.86;95832.38;4976205;28;20410;-54
2021/10/05 07:25:17;;;;;;;7.80;6.43;;;;;;;15.32;90.97;95829.19;4976597;28;20485;-54
2021/10/05 07:27:50;;;;;;;11.73;8.10;;;;;;;15.26;91.44;95830.25;4976570;28;20503;-58
2021/10/05 07:30:17;;;;;;;12.03;9.30;;;;;;;15.17;91.93;95837.16;4976494;28;20220;-58
2021/10/05 07:32:43;;;;;;;11.40;9.20;;;;;;;15.21;92.18;95827.63;4975782;28;20446;-55
2021/10/05 07:35:08;;;;;;;14.03;9.73;;;;;;;15.04;93.64;95825.25;4976258;28;20430;-54
2021/10/05 07:37:34;;;;;;;11.47;8.37;;;;;;;15.06;93.06;95828.44;4976257;28;20184;-54
2021/10/05 07:39:59;;;;;;;12.00;8.93;;;;;;;14.95;93.29;95826.84;4976099;28;20272;-59
2021/10/05 07:42:25;;;;;;;11.50;9.57;;;;;;;14.85;94.71;95829.53;4976422;28;20522;-58
2021/10/05 07:44:50;;;;;;;12.67;9.37;;;;;;;15.13;93.39;95822.84;4974669;28;20178;-58
2021/10/05 07:47:17;;;;;;;13.70;10.10;;;;;;;15.22;92.97;95816.75;4976235;28;20276;-58
2021/10/05 07:49:43;;;;;;;12.73;9.03;;;;;;;15.36;92.73;95809.06;4976021;28;20853;-58
2021/10/05 07:52:08;;;;;;;13.97;8.90;;;;;;;15.31;92.67;95811.72;4975921;28;20205;-58
2021/10/05 07:54:34;;;;;;;10.30;8.33;;;;;;;15.16;92.82;95817.81;4975690;28;20185;-54
2021/10/05 07:56:59;;;;;;;10.60;7.80;;;;;;;15.25;92.30;95807.50;4975833;28;20182;-55
2021/10/05 07:59:25;;;;;;;9.97;7.73;;;;;;;15.24;92.46;95811.19;4976075;28;20570;-54
2021/10/05 08:01:51;;;;;;;10.37;8.23;;;;;;;15.33;92.53;95810.38;4974619;28;21034;-54
2021/10/05 08:04:17;;;;;;;10.60;7.90;;;;;;;15.33;92.65;95807.75;4975396;28;20178;-54
2021/10/05 08:06:43;;;;;;;12.30;9.47;;;;;;;15.43;92.36;95817.56;4975634;28;20449;-59
2021/10/05 08:09:09;;;;;;;11.87;8.77;;;;;;;15.51;92.18;95810.91;4975789;28;20409;-54
2021/10/05 08:11:34;;;;;;;12.10;9.53;;;;;;;15.53;92.55;95824.69;4975798;28;20518;-54
2021/10/05 08:14:00;;;;;;;12.40;8.13;;;;;;;15.51;92.83;95819.63;4975251;28;20182;-58
2021/10/05 08:16:30;;;;;;;11.13;9.27;;;;;;;15.57;92.77;95823.06;4975411;28;20202;-58
2021/10/05 08:19:00;;;;;;;10.60;8.00;;;;;;;15.56;91.93;95829.44;4975565;28;20201;-58
2021/10/05 08:21:26;;;;;;;9.77;7.67;;;;;;;15.61;91.76;95821.47;4975804;28;20468;-58
2021/10/05 08:23:52;;;;;;;10.57;8.03;;;;;;;15.54;92.27;95821.75;4975110;28;20827;-58
2021/10/05 08:26:19;;;;;;;9.10;8.20;;;;;;;15.52;92.46;95823.09;4975557;28;20437;-54
2021/10/05 08:28:45;;;;;;;10.17;8.13;;;;;;;15.36;93.03;95824.97;4975248;28;20181;-58
2021/10/05 08:31:10;;;;;;;9.33;7.17;;;;;;;15.33;93.37;95826.28;4975676;28;20402;-59
2021/10/05 08:33:36;;;;;;;8.90;7.80;;;;;;;15.44;92.77;95832.38;4975238;28;20213;-58
2021/10/05 08:36:02;;;;;;;8.67;7.77;;;;;;;15.42;92.53;95830.00;4974917;28;20277;-58
2021/10/05 08:38:28;;;;;;;9.27;7.00;;;;;;;15.47;92.73;95826.56;4975057;28;20504;-54
2021/10/05 08:40:54;;;;;;;9.40;7.67;;;;;;;15.55;93.08;95831.28;4975247;28;20449;-58
2021/10/05 08:43:21;;;;;;;8.77;7.77;;;;;;;15.63;92.78;95825.44;4974645;28;20676;-55
2021/10/05 08:45:46;;;;;;;8.20;7.33;;;;;;;15.58;92.29;95825.44;4975137;28;20525;-58
2021/10/05 08:48:12;;;;;;;7.40;6.53;;;;;;;15.54;91.35;95827.06;4974058;28;20879;-59
2021/10/05 08:50:38;;;;;;;7.97;6.73;;;;;;;15.54;92.06;95829.72;4975217;28;20205;-54
2021/10/05 08:53:03;;;;;;;7.70;6.73;;;;;;;15.43;92.08;95830.78;4974613;28;20289;-54
2021/10/05 08:55:28;;;;;;;7.70;6.60;;;;;;;15.60;91.95;95835.78;4974947;28;20198;-54
2021/10/05 08:57:54;;;;;;;8.40;6.77;;;;;;;15.55;92.18;95831.28;4974938;28;20649;-58
2021/10/05 09:00:21;;;;;;;7.90;6.43;;;;;;;15.64;92.49;95829.66;4974755;28;20229;-54
2021/10/05 09:02:54;;;;;;;7.53;6.63;;;;;;;15.76;92.37;95824.06;4974471;28;20249;-58
2021/10/05 09:05:20;;;;;;;8.00;6.70;;;;;;;15.61;92.56;95829.41;4974654;28;20433;-54
2021/10/05 09:07:49;;;;;;;9.40;7.20;;;;;;;15.52;93.14;95825.72;4974801;28;20456;-58
2021/10/05 09:10:17;;;;;;;7.97;6.83;;;;;;;15.61;93.92;95829.41;4974828;28;20418;-54
2021/10/05 09:12:43;;;;;;;6.87;6.17;;;;;;;15.77;93.52;95836.22;4974642;28;20911;-55
2021/10/05 09:15:11;;;;;;;8.33;7.20;;;;;;;15.78;91.81;95832.53;4974754;28;20429;-58
2021/10/05 09:17:37;;;;;;;8.47;7.00;;;;;;;15.61;93.36;95832.84;4974561;28;20422;-54
2021/10/05 09:20:33;;;;;;;10.10;6.90;;;;;;;15.20;94.07;95829.47;4974623;28;20480;-58
2021/10/05 09:23:12;;;;;;;9.33;7.47;;;;;;;15.14;95.09;95835.06;4974063;28;20436;-58
2021/10/05 09:25:44;;;;;;;7.40;6.43;;;;;;;15.20;95.20;95831.34;4974685;28;20441;-58
2021/10/05 09:28:14;;;;;;;8.70;6.93;;;;;;;15.13;94.78;95828.16;4974769;28;20484;-54
2021/10/05 09:30:40;;;;;;;9.30;7.47;;;;;;;15.20;95.23;95829.47;4974662;28;20421;-54
2021/10/05 09:33:06;;;;;;;10.40;7.90;;;;;;;15.02;95.80;95840.59;4974178;28;20485;-54
2021/10/05 09:35:45;;;;;;;7.57;6.47;;;;;;;14.89;95.82;95833.19;4974286;28;20936;-54
2021/10/05 09:38:20;;;;;;;7.60;6.80;;;;;;;14.98;95.73;95826.31;4974575;28;20900;-57
2021/10/05 09:41:07;;;;;;;8.97;7.30;;;;;;;14.84;96.27;95835.09;4974439;28;20962;-54
2021/10/05 09:43:32;;;;;;;7.53;6.73;;;;;;;14.98;96.17;95825.53;4974118;28;20903;-54
2021/10/05 09:46:12;;;;;;;7.50;6.03;;;;;;;15.20;95.73;95826.06;4974452;28;20437;-58
2021/10/05 09:48:37;;;;;;;6.80;5.60;;;;;;;15.12;95.16;95816.00;4975267;28;20253;-58
2021/10/05 09:51:35;;;;;;;7.47;6.50;;;;;;;15.20;95.30;95803.00;4978350;28;20982;-59
2021/10/05 09:54:01;;;;;;;6.77;5.80;;;;;;;15.33;94.40;95799.00;4965927;28;20233;-54
2021/10/05 09:56:28;;;;;;;6.43;5.17;;;;;;;15.44;95.78;95761.69;4977992;28;20491;-54
2021/10/05 09:58:55;;;;;;;6.47;5.37;;;;;;;15.55;95.69;95759.78;4977989;28;20182;-54
2021/10/05 10:01:22;;;;;;;5.93;5.33;;;;;;;15.46;94.14;95758.75;4977947;28;20424;-54
2021/10/05 10:03:49;;;;;;;5.20;4.70;;;;;;;15.51;94.39;95771.19;4977588;28;20923;-54
2021/10/05 10:06:16;;;;;;;5.40;4.90;;;;;;;15.64;93.21;95770.59;4978009;28;20434;-54
2021/10/05 10:08:55;;;;;;;7.40;5.00;;;;;;;15.71;93.86;95773.75;4978023;28;20417;-58
2021/10/05 10:11:20;;;;;;;5.30;4.77;;;;;;;15.81;93.08;95776.34;4977867;28;20476;-54
2021/10/05 10:13:48;;;;;;;5.43;4.93;;;;;;;15.66;91.88;95779.84;4977636;28;20850;-58
2021/10/05 10:16:14;;;;;;;4.80;4.30;;;;;;;15.64;91.76;95781.19;4977890;28;20202;-58
2021/10/05 10:19:12;;;;;;;4.50;3.80;;;;;;;15.80;92.19;95778.19;4977830;28;20413;-54
2021/10/05 10:21:37;;;;;;;5.10;4.60;;;;;;;15.78;91.72;95782.22;4966019;28;20422;-54
2021/10/05 10:24:08;;;;;;;4.10;3.80;;;;;;;15.84;91.90;95791.69;4977273;28;20421;-58
2021/10/05 10:26:34;;;;;;;5.10;4.70;;;;;;;15.84;91.25;95787.19;4977663;28;20616;-54
2021/10/05 10:29:03;;;;;;;5.10;4.33;;;;;;;15.63;92.68;95783.06;4977755;28;20413;-54
2021/10/05 10:31:39;;;;;;;4.47;4.07;;;;;;;15.86;92.32;95773.66;4977700;28;20261;-59
2021/10/05 10:34:06;;;;;;;4.73;4.23;;;;;;;16.08;91.93;95782.84;4976978;28;20463;-58
2021/10/05 10:36:37;;;;;;;4.47;4.07;;;;;;;16.17;91.48;95783.03;4977477;28;20444;-58
2021/10/05 10:39:09;;;;;;;4.43;4.03;;;;;;;16.14;91.13;95784.38;4977365;28;20543;-59
2021/10/05 10:41:38;;;;;;;4.10;3.70;;;;;;;16.18;92.02;95779.31;4977519;28;20423;-54
2021/10/05 10:44:05;;;;;;;4.50;4.10;;;;;;;16.29;91.93;95776.34;4976791;28;20413;-55
2021/10/05 10:46:35;;;;;;;3.83;3.53;;;;;;;16.12;92.01;95775.94;4977279;28;20809;-54
2021/10/05 10:49:04;;;;;;;3.63;3.30;;;;;;;16.05;91.71;95780.72;4977158;28;20463;-58
2021/10/05 10:51:38;;;;;;;3.90;3.53;;;;;;;16.21;92.69;95774.28;4977210;28;20944;-54
2021/10/05 10:54:12;;;;;;;4.30;3.90;;;;;;;16.21;92.35;95779.59;4976820;28;20964;-54
2021/10/05 10:56:38;;;;;;;3.97;3.47;;;;;;;16.19;93.04;95783.56;4977110;28;20437;-59
2021/10/05 10:59:06;;;;;;;4.00;3.47;;;;;;;16.27;92.23;95780.31;4976743;28;20489;-58
2021/10/05 11:01:42;;;;;;;4.73;3.70;;;;;;;16.19;92.23;95778.25;4977010;28;20541;-54
2021/10/05 11:04:10;;;;;;;3.27;2.97;;;;;;;16.14;93.08;95778.31;4976634;28;20420;-58
2021/10/05 11:06:35;;;;;;;3.60;3.30;;;;;;;16.26;92.90;95789.34;4976859;28;20429;-59
2021/10/05 11:09:03;;;;;;;3.90;3.43;;;;;;;16.29;92.63;95783.47;4977046;28;20428;-54
2021/10/05 11:11:57;;;;;;;3.10;2.90;;;;;;;16.30;92.72;95777.94;4976939;28;20534;-59
2021/10/05 11:14:24;;;;;;;3.13;2.93;;;;;;;16.20;93.15;95785.94;4976464;28;20428;-54
2021/10/05 11:16:55;;;;;;;3.80;3.50;;;;;;;16.17;95.03;95781.19;4976713;28;20429;-58
2021/10/05 11:19:20;;;;;;;3.03;2.83;;;;;;;16.28;93.11;95781.91;4976826;28;20421;-59
2021/10/05 11:21:48;;;;;;;3.17;2.97;;;;;;;16.37;93.31;95778.41;4976514;28;20824;-58
2021/10/05 11:24:15;;;;;;;3.00;2.80;;;;;;;16.43;92.20;95779.94;4976257;28;20181;-54